Time;durP1;ratioP1;P1;durP2;ratioP2;P2;SDS_P1;SDS_P2;PMS_P1;PMS_P2;Temp;Humidity;BMP_temperature;BMP_pressure;BME280_temperature;BME280_humidity;BME280_pressure;Samples;Min_cycle;Max_cycle;Signal;HPM_P1;HPM_P2
2022/06/17 00:01:37;;;;;;;10.13;3.13;;;24.20;82.80;;;;;;4994300;28;20180;-70
2022/06/17 00:04:03;;;;;;;5.00;3.28;;;24.20;81.50;;;;;;4993962;28;20278;-70
2022/06/17 00:06:39;;;;;;;5.38;2.95;;;24.20;81.90;;;;;;4994862;28;20595;-71
2022/06/17 00:09:07;;;;;;;5.38;2.80;;;24.20;81.60;;;;;;4994447;28;20228;-70
2022/06/17 00:11:36;;;;;;;6.38;3.33;;;24.20;81.50;;;;;;4977669;28;20195;-71
2022/06/17 00:14:09;;;;;;;4.53;2.75;;;24.10;81.30;;;;;;4993819;28;20221;-70
2022/06/17 00:16:35;;;;;;;4.03;2.50;;;24.10;81.30;;;;;;4993554;28;20177;-70
2022/06/17 00:19:01;;;;;;;4.75;2.60;;;24.10;81.30;;;;;;4994145;28;20676;-70
2022/06/17 00:21:28;;;;;;;4.63;2.90;;;24.10;80.90;;;;;;4993664;28;20235;-71
2022/06/17 00:23:55;;;;;;;3.25;2.95;;;24.20;80.60;;;;;;4993579;28;20200;-70
2022/06/17 00:26:21;;;;;;;3.78;2.63;;;24.20;80.50;;;;;;4993504;28;20663;-70
2022/06/17 00:28:48;;;;;;;4.85;3.03;;;24.20;79.90;;;;;;4992932;28;20209;-70
2022/06/17 00:31:15;;;;;;;4.70;2.80;;;24.10;80.80;;;;;;4992227;28;20279;-71
2022/06/17 00:33:42;;;;;;;3.90;2.53;;;24.10;80.10;;;;;;4977002;28;20220;-72
2022/06/17 00:36:18;;;;;;;7.90;2.70;;;24.10;80.20;;;;;;4993085;28;20181;-72
2022/06/17 00:38:45;;;;;;;7.15;2.80;;;24.10;80.50;;;;;;4992582;28;20259;-72
2022/06/17 00:41:25;;;;;;;6.57;3.22;;;24.10;80.50;;;;;;4977127;28;20169;-72
2022/06/17 00:43:50;;;;;;;9.35;3.08;;;24.10;80.20;;;;;;4993244;28;20185;-72
2022/06/17 00:46:42;;;;;;;5.10;2.78;;;24.10;79.50;;;;;;4992875;28;20189;-70
2022/06/17 00:49:16;;;;;;;8.05;3.00;;;24.10;79.70;;;;;;4993567;28;20212;-70
2022/06/17 00:51:56;;;;;;;5.93;2.60;;;24.10;80.20;;;;;;4994073;28;20274;-71
2022/06/17 00:54:25;;;;;;;5.38;3.22;;;24.10;80.20;;;;;;4992558;28;20220;-70
2022/06/17 00:56:52;;;;;;;10.18;3.00;;;24.10;79.70;;;;;;4993908;28;20220;-71
2022/06/17 00:59:18;;;;;;;7.95;2.95;;;24.10;78.30;;;;;;4976075;28;20585;-72
2022/06/17 01:02:07;;;;;;;12.35;3.88;;;24.10;79.60;;;;;;4992651;28;20181;-72
2022/06/17 01:04:48;;;;;;;15.93;3.47;;;24.10;79.60;;;;;;4992743;28;20182;-72
2022/06/17 01:07:24;;;;;;;9.68;3.05;;;24.10;79.30;;;;;;4992795;28;20181;-71
2022/06/17 01:10:01;;;;;;;6.53;2.83;;;24.10;79.60;;;;;;4992006;28;20208;-71
2022/06/17 01:12:46;;;;;;;11.10;2.90;;;24.10;80.00;;;;;;4993634;28;20184;-70
2022/06/17 01:15:19;;;;;;;7.35;3.17;;;24.10;80.70;;;;;;4976310;28;20240;-71
2022/06/17 01:17:49;;;;;;;5.88;2.70;;;24.00;79.90;;;;;;4992410;28;20215;-71
2022/06/17 01:20:20;;;;;;;7.60;2.92;;;24.00;80.30;;;;;;4991743;28;20247;-71
2022/06/17 01:22:53;;;;;;;6.50;3.05;;;24.10;79.80;;;;;;4992581;28;20181;-71
2022/06/17 01:25:29;;;;;;;6.43;2.90;;;24.00;80.00;;;;;;4992311;28;20610;-71
2022/06/17 01:28:00;;;;;;;3.40;2.53;;;24.00;80.10;;;;;;4992159;28;20180;-71
2022/06/17 01:30:33;;;;;;;9.45;2.97;;;24.00;80.00;;;;;;4975459;28;20255;-71
2022/06/17 01:33:17;;;;;;;5.70;2.67;;;24.00;79.50;;;;;;4992013;28;20659;-71
2022/06/17 01:35:50;;;;;;;4.72;2.83;;;24.00;79.60;;;;;;4992188;28;20213;-71
2022/06/17 01:38:16;;;;;;;7.90;2.88;;;24.00;79.70;;;;;;4991840;28;20244;-71
2022/06/17 01:40:43;;;;;;;3.85;2.78;;;24.00;79.90;;;;;;4991941;28;20242;-71
2022/06/17 01:43:13;;;;;;;5.85;2.78;;;24.00;79.30;;;;;;4992189;28;20211;-71
2022/06/17 01:45:49;;;;;;;6.65;2.50;;;24.00;79.10;;;;;;4992444;28;20212;-71
2022/06/17 01:48:19;;;;;;;4.10;2.33;;;24.00;78.90;;;;;;4991458;28;20180;-70
2022/06/17 01:50:51;;;;;;;4.97;2.83;;;24.00;79.00;;;;;;4992033;28;20185;-72
2022/06/17 01:53:27;;;;;;;5.82;2.50;;;24.00;79.00;;;;;;4991722;28;20216;-71
2022/06/17 01:56:02;;;;;;;6.38;2.72;;;23.90;79.00;;;;;;4992309;28;20192;-72
2022/06/17 01:58:52;;;;;;;4.05;2.53;;;23.90;79.30;;;;;;4991305;28;20191;-71
2022/06/17 02:01:24;;;;;;;5.20;2.47;;;23.90;79.00;;;;;;4992069;28;20188;-71
2022/06/17 02:04:02;;;;;;;2.63;2.42;;;23.90;79.10;;;;;;4991849;28;20270;-71
2022/06/17 02:06:52;;;;;;;4.07;2.45;;;23.90;79.20;;;;;;4975563;28;20683;-71
2022/06/17 02:09:18;;;;;;;6.13;2.83;;;23.90;78.70;;;;;;4991415;28;20209;-71
2022/06/17 02:11:48;;;;;;;7.15;2.70;;;23.90;79.00;;;;;;4991829;28;20188;-71
2022/06/17 02:14:17;;;;;;;5.13;2.40;;;23.90;79.10;;;;;;4976194;28;20204;-71
2022/06/17 02:17:03;;;;;;;8.07;2.67;;;23.90;78.50;;;;;;4991787;28;20184;-72
2022/06/17 02:19:45;;;;;;;8.10;3.25;;;23.90;78.70;;;;;;4991004;28;20204;-71
2022/06/17 02:22:23;;;;;;;6.65;2.53;;;23.90;78.50;;;;;;4991827;28;20272;-72
2022/06/17 02:25:03;;;;;;;2.70;2.20;;;23.90;78.80;;;;;;4995256;28;20184;-71
2022/06/17 02:27:33;;;;;;;3.17;2.35;;;23.80;78.50;;;;;;4991642;28;20230;-71
2022/06/17 02:30:03;;;;;;;5.95;2.65;;;23.90;78.80;;;;;;4990980;28;20224;-72
2022/06/17 02:32:32;;;;;;;5.07;2.50;;;23.80;78.60;;;;;;4991844;28;20224;-71
2022/06/17 02:35:29;;;;;;;3.97;2.90;;;23.90;78.40;;;;;;4991684;28;20228;-72
2022/06/17 02:37:57;;;;;;;5.13;2.30;;;23.80;78.40;;;;;;4966420;28;20192;-72
2022/06/17 02:40:38;;;;;;;2.95;2.08;;;23.90;78.30;;;;;;4990937;28;20288;-72
2022/06/17 02:43:12;;;;;;;2.70;2.30;;;23.80;78.20;;;;;;4991568;28;20191;-71
2022/06/17 02:45:45;;;;;;;4.45;2.30;;;23.80;77.90;;;;;;4975702;28;20275;-71
2022/06/17 02:48:27;;;;;;;3.40;2.15;;;23.80;78.10;;;;;;4991311;28;20181;-71
2022/06/17 02:50:57;;;;;;;4.35;2.30;;;23.80;77.90;;;;;;4991247;28;20189;-71
2022/06/17 02:53:33;;;;;;;3.20;2.40;;;23.80;78.00;;;;;;4975882;28;20193;-72
2022/06/17 02:56:07;;;;;;;4.18;2.58;;;23.80;78.20;;;;;;4991959;28;20195;-72
2022/06/17 02:59:26;;;;;;;2.35;2.15;;;23.80;77.70;;;;;;4994192;28;20679;-71
2022/06/17 03:01:57;;;;;;;4.70;2.38;;;23.80;78.10;;;;;;5011662;28;20178;-72
2022/06/17 03:04:35;;;;;;;3.05;2.40;;;23.80;77.70;;;;;;5011607;28;20181;-72
2022/06/17 03:07:15;;;;;;;5.57;2.53;;;23.80;77.80;;;;;;5011366;28;20667;-72
2022/06/17 03:09:43;;;;;;;8.30;3.00;;;23.80;77.80;;;;;;4994547;28;20204;-71
2022/06/17 03:12:29;;;;;;;5.57;2.47;;;23.90;77.80;;;;;;4995220;28;20192;-72
2022/06/17 03:15:09;;;;;;;10.85;2.83;;;23.90;77.10;;;;;;4994816;28;20339;-72
2022/06/17 03:17:42;;;;;;;7.63;2.75;;;23.90;77.20;;;;;;4979144;28;20173;-72
2022/06/17 03:20:22;;;;;;;8.32;2.75;;;23.90;77.50;;;;;;4994290;28;20818;-72
2022/06/17 03:22:56;;;;;;;6.53;2.38;;;23.90;77.70;;;;;;5011261;28;20181;-72
2022/06/17 03:25:32;;;;;;;5.32;2.90;;;23.80;77.00;;;;;;4994604;28;20184;-72
2022/06/17 03:28:08;;;;;;;7.80;3.20;;;23.80;77.10;;;;;;4994929;28;20176;-72
2022/06/17 03:30:40;;;;;;;6.45;2.35;;;23.80;77.40;;;;;;4993944;28;20196;-71
2022/06/17 03:33:45;;;;;;;4.70;2.78;;;23.80;77.30;;;;;;5010917;28;20221;-72
2022/06/17 03:36:22;;;;;;;7.80;2.42;;;23.80;77.50;;;;;;5010703;28;20207;-72
2022/06/17 03:38:57;;;;;;;5.88;2.50;;;23.80;78.00;;;;;;4994051;28;20196;-71
2022/06/17 03:41:45;;;;;;;6.47;2.50;;;23.80;77.60;;;;;;4978250;28;20177;-71
2022/06/17 03:44:20;;;;;;;7.22;2.47;;;23.80;77.50;;;;;;4994776;28;20181;-71
2022/06/17 03:47:01;;;;;;;5.97;2.40;;;23.80;77.50;;;;;;4994438;28;20204;-71
2022/06/17 03:49:41;;;;;;;7.18;2.75;;;23.80;77.00;;;;;;4993761;28;20193;-71
2022/06/17 03:52:28;;;;;;;6.68;2.38;;;23.80;77.50;;;;;;5010242;28;20187;-71
2022/06/17 03:55:07;;;;;;;8.00;2.53;;;23.80;77.50;;;;;;4979255;28;20236;-72
2022/06/17 03:57:33;;;;;;;7.85;2.88;;;23.80;77.70;;;;;;4994101;28;20614;-72
2022/06/17 04:00:01;;;;;;;8.20;2.70;;;23.80;77.80;;;;;;5009769;28;20201;-72
2022/06/17 04:02:32;;;;;;;6.35;2.78;;;23.80;77.90;;;;;;4994131;28;20636;-72
2022/06/17 04:05:00;;;;;;;9.90;2.83;;;23.80;77.70;;;;;;4993690;28;20675;-72
2022/06/17 04:07:27;;;;;;;14.93;2.80;;;23.80;77.70;;;;;;5010273;28;20181;-72
2022/06/17 04:09:54;;;;;;;10.15;3.28;;;23.80;77.60;;;;;;4993307;28;20259;-71
2022/06/17 04:12:26;;;;;;;6.05;2.60;;;23.80;77.90;;;;;;5010504;28;20180;-71
2022/06/17 04:15:46;;;;;;;7.00;2.47;;;23.80;78.20;;;;;;4993584;28;20243;-71
2022/06/17 04:18:12;;;;;;;6.13;2.65;;;23.80;78.30;;;;;;4977977;28;20180;-71
2022/06/17 04:20:51;;;;;;;6.30;2.58;;;23.80;78.20;;;;;;4993263;28;20201;-72
2022/06/17 04:23:26;;;;;;;8.20;2.50;;;23.80;78.30;;;;;;4993886;28;20604;-72
2022/06/17 04:26:25;;;;;;;6.53;2.42;;;23.80;78.10;;;;;;4994716;28;20175;-72
2022/06/17 04:29:03;;;;;;;4.53;2.28;;;23.80;78.10;;;;;;4993819;28;20227;-72
2022/06/17 04:31:33;;;;;;;6.38;2.47;;;23.80;77.70;;;;;;5010451;28;20180;-71
2022/06/17 04:34:17;;;;;;;7.32;2.53;;;23.80;78.20;;;;;;4977990;28;20223;-71
2022/06/17 04:37:06;;;;;;;9.77;2.90;;;23.80;77.70;;;;;;5009443;28;20231;-71
2022/06/17 04:40:23;;;;;;;4.18;2.55;;;23.70;78.00;;;;;;4989223;28;20214;-71
2022/06/17 04:43:35;;;;;;;7.65;2.70;;;23.70;78.50;;;;;;4985248;28;20247;-72
2022/06/17 04:46:30;;;;;;;5.15;2.45;;;23.80;77.90;;;;;;5009447;28;20181;-72
2022/06/17 04:48:58;;;;;;;3.92;2.30;;;23.70;78.10;;;;;;4992491;28;20200;-72
2022/06/17 04:51:27;;;;;;;5.78;2.55;;;23.70;77.90;;;;;;5009074;28;20181;-72
2022/06/17 04:53:55;;;;;;;3.38;2.30;;;23.70;78.10;;;;;;4992948;28;20208;-72
2022/06/17 04:56:39;;;;;;;9.10;2.42;;;23.70;78.00;;;;;;4992887;28;20180;-71
2022/06/17 04:59:47;;;;;;;5.35;2.35;;;23.70;78.10;;;;;;5008655;28;20201;-71
2022/06/17 05:02:24;;;;;;;4.63;2.15;;;23.80;78.00;;;;;;4993178;28;20178;-71
2022/06/17 05:05:09;;;;;;;4.78;2.30;;;23.80;77.70;;;;;;5008843;28;20173;-71
2022/06/17 05:07:50;;;;;;;8.30;2.53;;;23.80;78.10;;;;;;5008892;28;20168;-71
2022/06/17 05:10:26;;;;;;;8.10;2.25;;;23.70;77.80;;;;;;4992007;28;20246;-71
2022/06/17 05:13:15;;;;;;;6.28;2.67;;;23.80;77.60;;;;;;5009162;28;20165;-71
2022/06/17 05:15:41;;;;;;;4.57;2.40;;;23.80;78.00;;;;;;4991947;28;20232;-71
2022/06/17 05:18:09;;;;;;;6.75;2.58;;;23.80;78.20;;;;;;4992372;28;20184;-71
2022/06/17 05:20:35;;;;;;;8.65;2.92;;;23.80;78.00;;;;;;4991835;28;20208;-71
2022/06/17 05:23:06;;;;;;;5.70;2.47;;;23.70;78.00;;;;;;4992417;28;20552;-71
2022/06/17 05:25:39;;;;;;;5.32;2.60;;;23.80;78.10;;;;;;4992485;28;20169;-71
2022/06/17 05:28:12;;;;;;;5.28;2.47;;;23.80;78.00;;;;;;4992438;28;20275;-72
2022/06/17 05:30:42;;;;;;;7.35;2.60;;;23.80;77.80;;;;;;4991850;28;20203;-71
2022/06/17 05:33:14;;;;;;;11.05;2.97;;;23.70;78.00;;;;;;4992298;28;20550;-70
2022/06/17 05:35:42;;;;;;;11.52;2.95;;;23.80;78.10;;;;;;4992508;28;20204;-71
2022/06/17 05:38:08;;;;;;;7.45;2.85;;;23.80;77.00;;;;;;4992635;28;20180;-71
2022/06/17 05:40:36;;;;;;;8.20;2.63;;;23.80;76.50;;;;;;4991965;28;20203;-72
2022/06/17 05:43:03;;;;;;;8.45;2.67;;;23.80;76.60;;;;;;4976224;28;20177;-71
2022/06/17 05:45:29;;;;;;;10.45;3.17;;;23.70;77.00;;;;;;4991984;28;20195;-72
2022/06/17 05:48:14;;;;;;;7.47;2.78;;;23.90;77.00;;;;;;4992032;28;20270;-71
2022/06/17 05:51:03;;;;;;;9.15;2.60;;;23.80;77.60;;;;;;4992926;28;20256;-70
2022/06/17 05:53:49;;;;;;;9.18;2.50;;;23.80;78.70;;;;;;4981884;28;20279;-70
2022/06/17 05:56:27;;;;;;;7.65;2.50;;;23.90;79.60;;;;;;4992080;28;20173;-70
2022/06/17 05:58:53;;;;;;;8.77;2.90;;;23.90;79.20;;;;;;4991527;28;20203;-70
2022/06/17 06:01:19;;;;;;;13.02;3.00;;;23.90;79.60;;;;;;4992088;28;20181;-71
2022/06/17 06:03:46;;;;;;;13.13;3.33;;;23.90;79.40;;;;;;4975841;28;20220;-72
2022/06/17 06:06:12;;;;;;;7.05;2.78;;;23.90;80.40;;;;;;4985328;28;20184;-73
2022/06/17 06:08:39;;;;;;;7.20;2.40;;;24.00;80.70;;;;;;4976807;28;20248;-72
2022/06/17 06:11:07;;;;;;;9.35;3.05;;;24.00;79.00;;;;;;4973071;28;20578;-72
2022/06/17 06:13:38;;;;;;;7.20;2.60;;;24.00;80.10;;;;;;4957239;28;20177;-72
2022/06/17 06:16:04;;;;;;;5.50;2.50;;;24.10;80.90;;;;;;4972635;28;20190;-72
2022/06/17 06:18:39;;;;;;;5.10;2.28;;;24.00;80.60;;;;;;4972569;28;20178;-72
2022/06/17 06:21:18;;;;;;;3.38;2.35;;;24.00;81.70;;;;;;4962252;28;20172;-72
2022/06/17 06:23:45;;;;;;;6.43;2.50;;;24.00;81.50;;;;;;4986283;28;20181;-71
2022/06/17 06:26:18;;;;;;;6.15;2.40;;;24.00;82.70;;;;;;4975772;28;20185;-72
2022/06/17 06:28:49;;;;;;;6.53;2.47;;;24.00;82.20;;;;;;5003440;28;20196;-69
2022/06/17 06:31:36;;;;;;;8.13;2.47;;;24.00;82.80;;;;;;4995869;28;20177;-70
2022/06/17 06:34:15;;;;;;;7.72;2.40;;;24.00;83.60;;;;;;4994307;28;20794;-71
2022/06/17 06:36:43;;;;;;;6.72;2.42;;;24.10;83.70;;;;;;4996191;28;20180;-71
2022/06/17 06:39:09;;;;;;;9.48;2.47;;;24.10;81.40;;;;;;4975532;28;20201;-71
2022/06/17 06:41:35;;;;;;;7.53;2.70;;;24.10;81.00;;;;;;5010611;28;20222;-71
2022/06/17 06:44:02;;;;;;;5.80;2.33;;;24.00;81.30;;;;;;4976041;28;20230;-71
2022/06/17 06:46:48;;;;;;;12.40;2.70;;;24.00;81.40;;;;;;4976219;28;20207;-71
2022/06/17 06:49:25;;;;;;;13.50;2.67;;;24.00;82.10;;;;;;4979926;28;20200;-72
2022/06/17 06:51:54;;;;;;;7.57;2.60;;;24.00;81.70;;;;;;4974403;28;20193;-71
2022/06/17 06:54:19;;;;;;;9.02;2.95;;;24.00;81.20;;;;;;4995693;28;20213;-70
2022/06/17 06:56:45;;;;;;;11.68;2.97;;;24.00;80.40;;;;;;4994945;28;20248;-69
2022/06/17 06:59:11;;;;;;;16.73;2.75;;;24.10;81.00;;;;;;4978365;28;20204;-73
2022/06/17 07:01:38;;;;;;;7.97;3.08;;;24.10;80.80;;;;;;4995492;28;20191;-71
2022/06/17 07:04:04;;;;;;;7.10;2.45;;;24.10;79.80;;;;;;5011265;28;20214;-71
2022/06/17 07:06:34;;;;;;;5.05;2.20;;;24.10;78.80;;;;;;4977967;28;20181;-71
2022/06/17 07:09:00;;;;;;;16.83;3.58;;;24.10;78.30;;;;;;4981148;28;20217;-70
2022/06/17 07:11:26;;;;;;;9.32;2.63;;;24.20;78.70;;;;;;5011079;28;20184;-70
2022/06/17 07:13:52;;;;;;;8.65;2.75;;;24.20;78.60;;;;;;4995972;28;20189;-71
2022/06/17 07:16:18;;;;;;;7.88;2.08;;;24.10;78.00;;;;;;5011290;28;20181;-69
2022/06/17 07:18:44;;;;;;;6.95;2.40;;;24.10;78.50;;;;;;4994944;28;20234;-70
2022/06/17 07:21:13;;;;;;;12.07;2.97;;;24.10;77.80;;;;;;4995595;28;20193;-70
2022/06/17 07:23:44;;;;;;;8.75;2.58;;;24.10;78.50;;;;;;4995651;28;20185;-71
2022/06/17 07:26:19;;;;;;;6.97;2.70;;;24.20;78.30;;;;;;4994686;28;20193;-72
2022/06/17 07:28:47;;;;;;;5.40;2.25;;;24.20;79.00;;;;;;4993990;28;20227;-70
2022/06/17 07:31:14;;;;;;;7.60;2.55;;;24.10;79.10;;;;;;4994503;28;20224;-72
2022/06/17 07:33:40;;;;;;;6.83;2.67;;;24.10;79.20;;;;;;4994213;28;20188;-71
2022/06/17 07:36:10;;;;;;;6.18;2.05;;;24.20;79.60;;;;;;5010810;28;20572;-71
2022/06/17 07:41:25;;;;;;;4.45;2.28;;;24.10;77.40;;;;;;4994196;28;20181;-70
2022/06/17 07:43:53;;;;;;;6.05;2.42;;;24.10;76.60;;;;;;4994116;28;20208;-70
2022/06/17 07:46:19;;;;;;;7.43;2.60;;;24.10;77.10;;;;;;4994223;28;20185;-70
2022/06/17 07:48:45;;;;;;;7.13;2.30;;;24.10;76.10;;;;;;4994316;28;20213;-70
2022/06/17 07:51:11;;;;;;;3.83;2.45;;;24.00;75.80;;;;;;4993420;28;20185;-70
2022/06/17 07:53:41;;;;;;;6.38;2.50;;;24.10;75.30;;;;;;4993985;28;20208;-70
2022/06/17 07:56:13;;;;;;;3.05;2.03;;;24.10;74.80;;;;;;4994040;28;20236;-71
2022/06/17 07:58:39;;;;;;;3.72;2.30;;;24.00;74.60;;;;;;5010133;28;20224;-71
2022/06/17 08:01:06;;;;;;;3.53;2.15;;;24.00;74.90;;;;;;4993267;28;20188;-70
2022/06/17 08:03:32;;;;;;;3.28;2.22;;;24.00;74.70;;;;;;4995042;28;20613;-71
2022/06/17 08:06:01;;;;;;;5.80;2.13;;;24.00;74.50;;;;;;5010293;28;20267;-70
2022/06/17 08:08:27;;;;;;;8.07;2.50;;;24.00;74.80;;;;;;4993869;28;20197;-71
2022/06/17 08:10:59;;;;;;;6.65;2.30;;;24.00;74.50;;;;;;4994282;28;20234;-70
2022/06/17 08:13:26;;;;;;;2.63;1.98;;;24.00;74.60;;;;;;5009890;28;20257;-71
2022/06/17 08:15:57;;;;;;;4.65;2.53;;;24.00;73.70;;;;;;4993372;28;20307;-71
2022/06/17 08:18:23;;;;;;;3.15;2.28;;;24.10;74.00;;;;;;4993542;28;20169;-69
2022/06/17 08:20:49;;;;;;;7.70;2.20;;;24.10;73.40;;;;;;4992984;28;20192;-71
2022/06/17 08:23:16;;;;;;;3.50;2.33;;;24.10;73.10;;;;;;4994507;28;20188;-70
2022/06/17 08:25:43;;;;;;;7.40;2.20;;;24.10;72.40;;;;;;5021233;28;20197;-71
2022/06/17 08:28:11;;;;;;;4.78;2.22;;;24.10;72.20;;;;;;4974496;28;20201;-71
2022/06/17 08:30:48;;;;;;;6.55;2.47;;;24.10;71.90;;;;;;4973554;28;20206;-71
2022/06/17 08:33:14;;;;;;;6.43;2.45;;;24.20;71.90;;;;;;4973848;28;20312;-71
2022/06/17 08:35:48;;;;;;;3.22;2.17;;;24.20;71.90;;;;;;4973975;28;20217;-70
2022/06/17 08:38:18;;;;;;;5.40;2.63;;;24.20;72.30;;;;;;4975352;28;20170;-70
2022/06/17 08:40:52;;;;;;;7.68;2.65;;;24.20;73.00;;;;;;4973058;28;20193;-70
2022/06/17 08:43:46;;;;;;;3.72;2.60;;;24.20;72.20;;;;;;4973874;28;20173;-69
2022/06/17 08:46:41;;;;;;;4.65;2.25;;;24.30;73.70;;;;;;4973787;28;20201;-69
2022/06/17 08:49:42;;;;;;;6.35;2.30;;;24.30;73.40;;;;;;4972947;28;20653;-70
2022/06/17 08:52:26;;;;;;;9.07;2.67;;;24.30;71.60;;;;;;4972422;28;20212;-71
2022/06/17 08:55:35;;;;;;;4.10;2.42;;;24.30;72.00;;;;;;4974407;28;20208;-71
2022/06/17 08:58:45;;;;;;;11.73;3.00;;;24.40;73.60;;;;;;4926665;28;20202;-69
2022/06/17 09:01:24;;;;;;;8.18;2.72;;;24.40;74.00;;;;;;4974157;28;20178;-69
2022/06/17 09:04:37;;;;;;;6.78;2.42;;;24.30;72.20;;;;;;4973224;28;20201;-69
2022/06/17 09:07:36;;;;;;;7.03;2.78;;;24.30;72.40;;;;;;4973210;28;20197;-70
2022/06/17 09:10:24;;;;;;;6.50;2.85;;;24.30;72.60;;;;;;4974018;28;20209;-69
2022/06/17 09:13:12;;;;;;;7.40;2.25;;;24.30;72.00;;;;;;4973368;28;20177;-69
2022/06/17 09:15:55;;;;;;;5.28;2.30;;;24.30;71.60;;;;;;4973155;28;20217;-70
2022/06/17 09:18:46;;;;;;;7.28;2.53;;;24.30;72.40;;;;;;4974150;28;20170;-70
2022/06/17 09:21:34;;;;;;;7.32;2.53;;;24.30;72.50;;;;;;4972562;28;20186;-70
2022/06/17 09:24:06;;;;;;;6.75;2.47;;;24.30;72.20;;;;;;4973228;28;20178;-72
2022/06/17 09:26:45;;;;;;;13.70;2.75;;;24.30;72.70;;;;;;4972940;28;20193;-69
2022/06/17 09:29:36;;;;;;;9.50;3.00;;;24.40;71.60;;;;;;4972355;28;20240;-70
2022/06/17 09:32:12;;;;;;;12.00;2.75;;;24.40;71.70;;;;;;4973268;28;20188;-70
2022/06/17 09:35:09;;;;;;;8.05;2.00;;;24.40;71.90;;;;;;4972599;28;20702;-70
2022/06/17 09:37:52;;;;;;;10.02;2.67;;;24.30;72.40;;;;;;4972931;28;20178;-70
2022/06/17 09:40:54;;;;;;;7.78;2.70;;;24.30;72.10;;;;;;4973359;28;20205;-70
2022/06/17 09:43:32;;;;;;;5.50;2.42;;;24.30;71.80;;;;;;4968481;28;20279;-71
2022/06/17 09:46:39;;;;;;;5.63;2.38;;;24.30;71.60;;;;;;4991994;28;20185;-70
2022/06/17 09:49:23;;;;;;;10.98;2.72;;;24.30;72.30;;;;;;4985932;28;20264;-70
2022/06/17 09:52:13;;;;;;;5.30;2.40;;;24.30;72.80;;;;;;4975831;28;20189;-70
2022/06/17 09:54:48;;;;;;;7.32;2.13;;;24.30;72.00;;;;;;4992976;28;20224;-71
2022/06/17 09:57:39;;;;;;;4.63;2.35;;;24.30;71.60;;;;;;4993388;28;20567;-70
2022/06/17 10:00:19;;;;;;;5.65;2.30;;;24.30;71.60;;;;;;4991570;28;20201;-70
2022/06/17 10:02:59;;;;;;;9.35;2.50;;;24.30;71.50;;;;;;4991717;28;20173;-70
2022/06/17 10:06:11;;;;;;;11.80;2.65;;;24.30;71.90;;;;;;5001874;28;20183;-70
2022/06/17 10:08:47;;;;;;;6.30;2.30;;;24.30;72.40;;;;;;5011167;28;20330;-70
2022/06/17 10:11:24;;;;;;;7.93;2.58;;;24.30;72.10;;;;;;5012242;28;20183;-71
2022/06/17 10:14:30;;;;;;;6.15;2.20;;;24.30;71.00;;;;;;5012439;28;20283;-70
2022/06/17 10:20:36;;;;;;;11.23;2.30;;;24.30;71.60;;;;;;5011982;28;20760;-70
2022/06/17 10:23:32;;;;;;;10.15;2.40;;;24.30;71.60;;;;;;5011268;28;20180;-70
2022/06/17 10:26:31;;;;;;;10.48;2.45;;;24.30;71.60;;;;;;5011906;28;20184;-70
2022/06/17 10:29:03;;;;;;;12.40;2.65;;;24.30;71.60;;;;;;5011409;28;20215;-71
2022/06/17 10:31:38;;;;;;;10.52;2.45;;;24.40;71.70;;;;;;5011321;28;20231;-70
2022/06/17 10:34:18;;;;;;;6.75;2.50;;;24.50;72.80;;;;;;5011042;28;20211;-70
2022/06/17 10:36:46;;;;;;;9.02;2.60;;;24.40;71.70;;;;;;5012630;28;20187;-70
2022/06/17 10:39:19;;;;;;;7.15;2.08;;;24.40;71.00;;;;;;5011720;28;20240;-70
2022/06/17 10:41:45;;;;;;;8.75;2.35;;;24.40;70.50;;;;;;4994923;28;20290;-72
2022/06/17 10:44:16;;;;;;;8.32;2.88;;;24.40;70.00;;;;;;5011593;28;20188;-71
2022/06/17 10:47:05;;;;;;;13.07;2.65;;;24.30;70.40;;;;;;5027444;28;20172;-71
2022/06/17 10:50:24;;;;;;;14.52;2.60;;;24.40;71.30;;;;;;5027118;28;20219;-71
2022/06/17 10:53:18;;;;;;;11.98;2.53;;;24.40;70.70;;;;;;4954629;28;20685;-71
2022/06/17 10:55:55;;;;;;;12.45;2.67;;;24.40;70.50;;;;;;4972082;28;20588;-70
2022/06/17 10:58:29;;;;;;;10.98;2.60;;;24.40;70.30;;;;;;4971925;28;20177;-70
2022/06/17 11:01:15;;;;;;;7.22;2.20;;;24.40;70.20;;;;;;4971468;28;20249;-71
2022/06/17 11:03:48;;;;;;;5.10;2.20;;;24.40;70.10;;;;;;4988170;28;20638;-70
2022/06/17 11:06:19;;;;;;;13.80;2.67;;;24.40;70.80;;;;;;4973039;28;20202;-70
2022/06/17 11:08:48;;;;;;;9.50;2.67;;;24.40;70.50;;;;;;4984000;28;20204;-71
2022/06/17 11:14:34;;;;;;;7.32;2.38;;;24.40;70.40;;;;;;5012335;28;20311;-71
2022/06/17 11:17:03;;;;;;;11.15;2.65;;;24.40;70.10;;;;;;5014236;28;20242;-71
2022/06/17 11:19:30;;;;;;;7.57;2.20;;;24.40;70.50;;;;;;5014777;28;20624;-71
2022/06/17 11:22:02;;;;;;;7.20;2.53;;;24.40;70.20;;;;;;5012422;28;20191;-71
2022/06/17 11:24:41;;;;;;;7.78;2.50;;;24.40;69.90;;;;;;5010334;28;20195;-71
2022/06/17 11:27:27;;;;;;;12.63;2.75;;;24.40;71.10;;;;;;5010512;28;20195;-71
2022/06/17 11:29:56;;;;;;;22.27;4.22;;;24.40;70.80;;;;;;4976082;28;20220;-70
2022/06/17 11:32:30;;;;;;;7.07;2.65;;;24.40;70.60;;;;;;4975877;28;20196;-70
2022/06/17 11:35:16;;;;;;;8.32;2.58;;;24.40;70.60;;;;;;4975798;28;20220;-70
2022/06/17 11:37:48;;;;;;;10.95;2.92;;;24.40;70.30;;;;;;4975182;28;20277;-70
2022/06/17 11:40:22;;;;;;;13.48;3.03;;;24.40;69.90;;;;;;4975484;28;20226;-70
2022/06/17 11:42:55;;;;;;;15.05;2.58;;;24.40;69.80;;;;;;4974986;28;20177;-71
2022/06/17 11:45:41;;;;;;;5.72;2.42;;;24.50;70.30;;;;;;4975103;28;20186;-70
2022/06/17 11:48:19;;;;;;;16.60;3.28;;;24.40;70.90;;;;;;4974726;28;20622;-72
2022/06/17 11:51:10;;;;;;;12.48;2.60;;;24.50;71.60;;;;;;4958144;28;20197;-69
2022/06/17 11:54:29;;;;;;;13.43;3.33;;;24.50;70.70;;;;;;4974285;28;20193;-69
2022/06/17 11:56:55;;;;;;;13.65;2.97;;;24.50;70.40;;;;;;4968408;28;20288;-70
2022/06/17 11:59:39;;;;;;;15.45;3.05;;;24.50;70.30;;;;;;4974399;28;20273;-70
2022/06/17 12:02:08;;;;;;;9.38;2.97;;;24.60;70.80;;;;;;4975719;28;20216;-71
2022/06/17 12:04:56;;;;;;;14.07;3.58;;;24.70;71.20;;;;;;4974690;28;20205;-71
2022/06/17 12:07:35;;;;;;;11.60;2.80;;;24.70;71.10;;;;;;4974543;28;20649;-71
2022/06/17 12:10:39;;;;;;;10.57;2.88;;;24.70;71.00;;;;;;4974004;28;20213;-71
2022/06/17 12:13:44;;;;;;;8.45;2.38;;;24.70;70.00;;;;;;4974440;28;20201;-70
2022/06/17 12:16:31;;;;;;;10.90;2.72;;;24.70;70.30;;;;;;4974108;28;20213;-70
2022/06/17 12:18:59;;;;;;;6.63;2.88;;;24.80;71.20;;;;;;4975413;28;20708;-71
2022/06/17 12:22:07;;;;;;;7.82;2.67;;;24.70;70.60;;;;;;4973702;28;20241;-71
2022/06/17 12:25:05;;;;;;;9.82;2.58;;;24.70;70.40;;;;;;4974134;28;20197;-70
2022/06/17 12:27:38;;;;;;;4.25;2.03;;;24.70;70.70;;;;;;4974183;28;20650;-71
2022/06/17 12:30:06;;;;;;;4.95;2.05;;;24.70;71.20;;;;;;4973281;28;20232;-71
2022/06/17 12:32:55;;;;;;;11.45;2.20;;;24.70;72.00;;;;;;4974163;28;20193;-70
2022/06/17 12:35:33;;;;;;;10.00;2.13;;;24.70;71.50;;;;;;4975046;28;20236;-69
2022/06/17 12:38:10;;;;;;;12.45;2.33;;;24.70;71.20;;;;;;4973887;28;20181;-70
2022/06/17 12:41:13;;;;;;;4.13;2.28;;;24.70;71.20;;;;;;4974208;28;20256;-70
2022/06/17 12:44:07;;;;;;;9.88;2.83;;;24.70;70.90;;;;;;4956630;28;20261;-70
2022/06/17 12:46:59;;;;;;;4.93;2.20;;;24.70;70.90;;;;;;4974750;28;20173;-70
2022/06/17 12:53:37;;;;;;;3.85;2.47;;;24.70;71.40;;;;;;4974451;28;20630;-70
2022/06/17 12:56:14;;;;;;;9.50;2.50;;;24.70;70.40;;;;;;4963097;28;20686;-71
2022/06/17 12:58:56;;;;;;;7.22;2.13;;;;;;;;;;4973379;28;20217;-70
2022/06/17 13:01:38;;;;;;;5.97;2.22;;;24.70;70.70;;;;;;5001475;28;20199;-69
2022/06/17 13:04:29;;;;;;;5.13;2.10;;;24.80;71.80;;;;;;5028793;28;20215;-69
2022/06/17 13:07:27;;;;;;;7.43;2.33;;;24.70;70.50;;;;;;5013441;28;20180;-69
2022/06/17 13:10:41;;;;;;;5.65;2.15;;;24.60;69.80;;;;;;4994813;28;20287;-68
2022/06/17 13:13:30;;;;;;;4.75;2.00;;;24.60;69.90;;;;;;4997899;28;20271;-69
2022/06/17 13:16:14;;;;;;;4.70;2.22;;;24.60;69.90;;;;;;5012184;28;20254;-69
2022/06/17 13:18:53;;;;;;;7.15;2.30;;;24.50;69.60;;;;;;5006043;28;20275;-69
2022/06/17 13:21:25;;;;;;;2.90;1.90;;;24.60;69.20;;;;;;5005741;28;20192;-68
2022/06/17 13:24:18;;;;;;;4.60;1.58;;;24.50;69.00;;;;;;5005604;28;20550;-67
2022/06/17 13:27:07;;;;;;;4.53;1.80;;;24.50;69.30;;;;;;4987635;28;20184;-68
2022/06/17 13:29:54;;;;;;;3.97;1.88;;;24.50;69.20;;;;;;5017555;28;20296;-68
2022/06/17 13:32:49;;;;;;;3.67;1.95;;;24.50;67.90;;;;;;5012288;28;20647;-68
2022/06/17 13:35:38;;;;;;;3.13;2.00;;;24.50;68.10;;;;;;4973929;28;20202;-69
2022/06/17 13:38:18;;;;;;;4.03;1.90;;;24.50;68.00;;;;;;4989531;28;20182;-69
2022/06/17 13:40:51;;;;;;;4.72;1.83;;;24.50;68.10;;;;;;4975171;28;20193;-70
2022/06/17 13:43:45;;;;;;;3.80;1.98;;;24.50;68.10;;;;;;4973991;28;20186;-68
2022/06/17 13:46:42;;;;;;;4.40;1.80;;;24.50;67.80;;;;;;4956624;28;20194;-69
2022/06/17 13:49:41;;;;;;;3.70;1.50;;;24.40;66.90;;;;;;4972532;28;20681;-69
2022/06/17 13:52:33;;;;;;;4.75;2.22;;;24.50;67.00;;;;;;4956537;28;20190;-69
2022/06/17 13:55:36;;;;;;;2.67;2.03;;;24.40;67.00;;;;;;4973407;28;20201;-70